createdAt,value
2018-05-18T00:00:50.674Z,23.61
2018-05-18T00:02:00.659Z,23.61
2018-05-18T00:03:09.878Z,23.55
2018-05-18T00:04:19.881Z,23.58
2018-05-18T00:05:29.356Z,23.61
2018-05-18T00:06:38.823Z,23.55
2018-05-18T00:07:47.741Z,23.58
2018-05-18T00:08:57.468Z,23.6
2018-05-18T00:10:06.941Z,23.57
2018-05-18T00:11:16.932Z,23.53
2018-05-18T00:12:25.836Z,23.53
2018-05-18T00:13:35.259Z,23.55
2018-05-18T00:14:44.953Z,23.58
2018-05-18T00:15:54.124Z,23.6
2018-05-18T00:17:03.108Z,23.57
2018-05-18T00:18:12.001Z,23.6
2018-05-18T00:19:21.683Z,23.53
2018-05-18T00:20:30.857Z,23.55
2018-05-18T00:21:40.017Z,23.54
2018-05-18T00:22:49.260Z,23.53
2018-05-18T00:23:58.421Z,23.55
2018-05-18T00:25:07.583Z,23.57
2018-05-18T00:26:17.269Z,23.55
2018-05-18T00:27:26.763Z,23.53
2018-05-18T00:28:35.919Z,23.5
2018-05-18T00:29:45.354Z,23.57
2018-05-18T00:30:55.346Z,23.51
2018-05-18T00:32:04.788Z,23.55
2018-05-18T00:33:14.541Z,23.53
2018-05-18T00:34:24.009Z,23.54
2018-05-18T00:35:33.673Z,23.48
2018-05-18T00:36:43.360Z,23.5
2018-05-18T00:37:52.808Z,23.5
2018-05-18T00:39:02.517Z,23.53
2018-05-18T00:40:11.963Z,23.48
2018-05-18T00:41:21.161Z,23.55
2018-05-18T00:42:30.881Z,23.53
2018-05-18T00:43:40.819Z,23.55
2018-05-18T00:44:50.544Z,23.51
2018-05-18T00:45:59.719Z,23.57
2018-05-18T00:47:09.155Z,23.53
2018-05-18T00:48:18.587Z,23.51
2018-05-18T00:49:28.042Z,23.53
2018-05-18T00:50:37.985Z,23.5
2018-05-18T00:51:47.417Z,23.46
2018-05-18T00:52:56.913Z,23.51
2018-05-18T00:54:06.081Z,23.53
2018-05-18T00:55:15.773Z,23.46
2018-05-18T00:56:25.469Z,23.48
2018-05-18T00:57:35.411Z,23.46
2018-05-18T00:58:44.596Z,23.47
2018-05-18T00:59:54.023Z,23.46
2018-05-18T01:01:03.190Z,23.54
2018-05-18T01:02:12.133Z,23.48
2018-05-18T01:03:21.556Z,23.46
2018-05-18T01:04:31.034Z,23.54
2018-05-18T01:05:40.744Z,23.46
2018-05-18T01:06:50.187Z,23.4
2018-05-18T01:07:59.363Z,23.54
2018-05-18T01:09:09.075Z,23.47
2018-05-18T01:10:18.327Z,23.48
2018-05-18T01:11:27.293Z,23.47
2018-05-18T01:12:37.010Z,23.5
2018-05-18T01:13:47.045Z,23.4
2018-05-18T01:14:56.297Z,23.42
2018-05-18T01:16:06.019Z,23.4
2018-05-18T01:17:15.708Z,23.39
2018-05-18T01:18:25.396Z,23.4
2018-05-18T01:19:35.096Z,23.48
2018-05-18T01:20:44.616Z,23.46
2018-05-18T01:21:53.804Z,23.47
2018-05-18T01:23:03.228Z,23.4
2018-05-18T01:24:12.922Z,23.42
2018-05-18T01:25:22.392Z,23.42
2018-05-18T01:26:31.899Z,23.39
2018-05-18T01:27:41.584Z,23.47
2018-05-18T01:28:50.734Z,23.47
2018-05-18T01:30:00.164Z,23.47
2018-05-18T01:31:09.626Z,23.43
2018-05-18T01:32:18.584Z,23.4
2018-05-18T01:33:28.020Z,23.43
2018-05-18T01:34:37.187Z,23.39
2018-05-18T01:35:46.634Z,23.42
2018-05-18T01:36:55.954Z,23.43
2018-05-18T01:38:04.649Z,23.4
2018-05-18T01:39:13.614Z,23.39
2018-05-18T01:40:23.074Z,23.39
2018-05-18T01:41:32.247Z,23.43
2018-05-18T01:42:41.673Z,23.43
2018-05-18T01:43:51.103Z,23.39
2018-05-18T01:45:00.800Z,23.47
2018-05-18T01:46:10.488Z,23.33
2018-05-18T01:47:19.917Z,23.39
2018-05-18T01:48:29.623Z,23.38
2018-05-18T01:49:39.029Z,23.39
2018-05-18T01:50:48.445Z,23.4
2018-05-18T01:51:58.120Z,23.39
2018-05-18T01:53:07.550Z,23.36
2018-05-18T01:54:17.016Z,23.35
2018-05-18T01:55:26.433Z,23.32
2018-05-18T01:56:35.597Z,23.4
2018-05-18T01:57:45.052Z,23.36
2018-05-18T01:58:54.475Z,23.33
2018-05-18T02:00:04.183Z,23.36
2018-05-18T02:01:13.393Z,23.35
2018-05-18T02:02:23.061Z,23.36
2018-05-18T02:03:32.800Z,23.36
2018-05-18T02:04:42.763Z,23.36
2018-05-18T02:05:52.450Z,23.38
2018-05-18T02:07:01.901Z,23.35
2018-05-18T02:08:11.604Z,23.35
2018-05-18T02:09:21.039Z,23.36
2018-05-18T02:10:30.464Z,23.35
2018-05-18T02:11:39.636Z,23.39
2018-05-18T02:12:49.095Z,23.32
2018-05-18T02:13:58.283Z,23.33
2018-05-18T02:15:07.723Z,23.38
2018-05-18T02:16:17.396Z,23.36
2018-05-18T02:17:26.616Z,23.39
2018-05-18T02:18:36.565Z,23.35
2018-05-18T02:19:45.992Z,23.38
2018-05-18T02:20:55.760Z,23.4
2018-05-18T02:22:05.461Z,23.38
2018-05-18T02:23:14.880Z,23.39
2018-05-18T02:24:24.056Z,23.39
2018-05-18T02:25:33.208Z,23.4
2018-05-18T02:26:42.895Z,23.36
2018-05-18T02:27:52.357Z,23.39
2018-05-18T02:29:01.299Z,23.27
2018-05-18T02:30:10.969Z,23.39
2018-05-18T02:31:20.159Z,23.27
2018-05-18T02:32:29.836Z,23.39
2018-05-18T02:33:39.568Z,23.38
2018-05-18T02:34:49.348Z,23.27
2018-05-18T02:35:58.830Z,23.38
2018-05-18T02:37:08.563Z,23.42
2018-05-18T02:38:18.025Z,23.28
2018-05-18T02:39:27.447Z,23.42
2018-05-18T02:40:36.891Z,23.31
2018-05-18T02:41:46.140Z,23.25
2018-05-18T02:42:55.305Z,23.27
2018-05-18T02:44:04.511Z,23.27
2018-05-18T02:45:13.711Z,23.23
2018-05-18T02:46:23.139Z,23.38
2018-05-18T02:47:33.171Z,23.25
2018-05-18T02:48:43.139Z,23.23
2018-05-18T02:49:52.866Z,23.27
2018-05-18T02:51:02.302Z,23.28
2018-05-18T02:52:11.760Z,23.25
2018-05-18T02:53:21.323Z,23.33
2018-05-18T02:54:30.772Z,23.27
2018-05-18T02:55:40.475Z,23.25
2018-05-18T02:56:50.456Z,23.22
2018-05-18T02:58:00.140Z,23.23
2018-05-18T02:59:09.619Z,23.25
2018-05-18T03:00:18.888Z,23.23
2018-05-18T03:01:28.057Z,23.25
2018-05-18T03:02:37.488Z,23.28
2018-05-18T03:03:47.269Z,23.28
2018-05-18T03:04:56.761Z,23.17
2018-05-18T03:06:06.228Z,23.25
2018-05-18T03:07:15.907Z,23.27
2018-05-18T03:08:24.836Z,23.25
2018-05-18T03:09:34.580Z,23.17
2018-05-18T03:10:44.011Z,23.16
2018-05-18T03:11:53.192Z,23.16
2018-05-18T03:13:02.630Z,23.05
2018-05-18T03:14:12.402Z,23.05
2018-05-18T03:15:21.563Z,22.94
2018-05-18T03:16:31.238Z,22.92
2018-05-18T03:17:40.145Z,22.92
2018-05-18T03:18:49.068Z,22.9
2018-05-18T03:19:58.770Z,22.92
2018-05-18T03:21:08.644Z,22.83
2018-05-18T03:22:18.680Z,22.77
2018-05-18T03:23:27.844Z,22.77
2018-05-18T03:24:37.019Z,22.73
2018-05-18T03:25:46.735Z,22.68
2018-05-18T03:26:55.440Z,22.61
2018-05-18T03:28:04.852Z,22.6
2018-05-18T03:29:14.807Z,22.58
2018-05-18T03:30:23.972Z,22.64
2018-05-18T03:31:33.405Z,22.65
2018-05-18T03:32:42.311Z,22.57
2018-05-18T03:33:51.758Z,22.62
2018-05-18T03:35:01.209Z,22.62
2018-05-18T03:36:11.059Z,22.58
2018-05-18T03:37:20.220Z,22.57
2018-05-18T03:38:30.188Z,22.57
2018-05-18T03:39:39.593Z,22.57
2018-05-18T03:40:48.757Z,22.52
2018-05-18T03:41:57.953Z,22.55
2018-05-18T03:43:07.390Z,22.58
2018-05-18T03:44:16.825Z,22.55
2018-05-18T03:45:26.011Z,22.51
2018-05-18T03:46:35.708Z,22.46
2018-05-18T03:47:45.414Z,22.45
2018-05-18T03:48:55.119Z,22.46
2018-05-18T03:50:04.590Z,22.46
2018-05-18T03:51:13.790Z,22.39
2018-05-18T03:52:23.245Z,22.42
2018-05-18T03:53:32.420Z,22.43
2018-05-18T03:54:41.354Z,22.4
2018-05-18T03:55:51.056Z,22.4
2018-05-18T03:57:00.726Z,22.37
2018-05-18T03:58:10.202Z,22.4
2018-05-18T03:59:19.728Z,22.33
2018-05-18T04:00:29.415Z,22.27
2018-05-18T04:01:38.879Z,22.28
2018-05-18T04:02:48.600Z,22.2
2018-05-18T04:03:58.011Z,22.3
2018-05-18T04:05:07.971Z,22.3
2018-05-18T04:06:16.975Z,22.28
2018-05-18T04:07:26.145Z,22.25
2018-05-18T04:08:35.867Z,22.24
2018-05-18T04:09:45.302Z,22.22
2018-05-18T04:10:54.746Z,22.21
2018-05-18T04:12:04.686Z,22.27
2018-05-18T04:13:13.848Z,22.18
2018-05-18T04:14:23.379Z,22.17
2018-05-18T04:15:32.795Z,22.18
2018-05-18T04:16:42.486Z,22.22
2018-05-18T04:17:51.692Z,22.21
2018-05-18T04:19:00.608Z,22.09
2018-05-18T04:20:09.515Z,22.17
2018-05-18T04:21:18.176Z,22.2
2018-05-18T04:22:27.602Z,22.03
2018-05-18T04:23:37.302Z,22.1
2018-05-18T04:24:46.770Z,22.06
2018-05-18T04:25:56.730Z,22.12
2018-05-18T04:27:06.488Z,22.1
2018-05-18T04:28:16.192Z,22
2018-05-18T04:29:25.619Z,21.99
2018-05-18T04:30:34.937Z,21.94
2018-05-18T04:31:44.433Z,21.99
2018-05-18T04:32:53.443Z,22
2018-05-18T04:34:03.199Z,21.99
2018-05-18T04:35:12.127Z,22
2018-05-18T04:36:21.301Z,21.94
2018-05-18T04:37:31.007Z,21.99
2018-05-18T04:38:40.436Z,21.99
2018-05-18T04:39:49.610Z,21.98
2018-05-18T04:40:59.314Z,21.9
2018-05-18T04:42:08.488Z,21.99
2018-05-18T04:43:17.814Z,21.86
2018-05-18T04:44:27.533Z,21.91
2018-05-18T04:45:37.484Z,21.94
2018-05-18T04:46:46.968Z,21.84
2018-05-18T04:47:56.679Z,21.84
2018-05-18T04:49:06.132Z,21.94
2018-05-18T04:50:15.849Z,21.9
2018-05-18T04:51:24.497Z,21.84
2018-05-18T04:52:33.954Z,21.91
2018-05-18T04:53:43.383Z,21.84
2018-05-18T04:54:53.321Z,21.92
2018-05-18T04:56:02.488Z,21.88
2018-05-18T04:57:12.207Z,21.9
2018-05-18T04:58:22.168Z,21.94
2018-05-18T04:59:31.164Z,21.92
2018-05-18T05:00:40.582Z,22.02
2018-05-18T05:01:50.079Z,21.91
2018-05-18T05:02:59.232Z,21.91
2018-05-18T05:04:08.910Z,22.05
2018-05-18T05:05:18.591Z,22.05
2018-05-18T05:06:28.037Z,22.09
2018-05-18T05:07:37.454Z,22.18
2018-05-18T05:08:46.628Z,22.22
2018-05-18T05:09:55.538Z,22.24
2018-05-18T05:11:04.972Z,22.18
2018-05-18T05:12:14.448Z,22.22
2018-05-18T05:13:24.117Z,22.2
2018-05-18T05:14:33.566Z,22.22
2018-05-18T05:15:43.000Z,22.27
2018-05-18T05:16:52.464Z,22.35
2018-05-18T05:18:02.428Z,22.3
2018-05-18T05:19:12.061Z,22.28
2018-05-18T05:20:22.053Z,22.28
2018-05-18T05:21:31.501Z,22.31
2018-05-18T05:23:00.383Z,22.39
2018-05-18T05:24:09.616Z,22.36
2018-05-18T05:25:18.533Z,22.39
2018-05-18T05:26:27.977Z,22.37
2018-05-18T05:27:37.406Z,22.42
2018-05-18T05:28:46.324Z,22.33
2018-05-18T05:29:56.295Z,22.36
2018-05-18T05:31:06.054Z,22.4
2018-05-18T05:32:15.259Z,22.36
2018-05-18T05:33:24.975Z,22.42
2018-05-18T05:34:34.217Z,22.39
2018-05-18T05:35:43.692Z,22.35
2018-05-18T05:36:53.378Z,22.35
2018-05-18T05:38:02.860Z,22.39
2018-05-18T05:39:12.067Z,22.36
2018-05-18T05:40:21.853Z,22.35
2018-05-18T05:41:31.840Z,22.35
2018-05-18T05:42:41.376Z,22.4
2018-05-18T05:43:50.822Z,22.39
2018-05-18T05:45:00.565Z,22.42
2018-05-18T05:46:10.246Z,22.37
2018-05-18T05:47:20.125Z,22.39
2018-05-18T05:48:29.573Z,22.37
2018-05-18T05:49:38.770Z,22.39
2018-05-18T05:50:47.942Z,22.36
2018-05-18T05:51:57.352Z,22.39
2018-05-18T05:53:07.104Z,22.35
2018-05-18T05:54:16.023Z,22.37
2018-05-18T05:55:25.973Z,22.35
2018-05-18T05:56:35.655Z,22.39
2018-05-18T05:57:45.344Z,22.39
2018-05-18T05:58:55.044Z,22.37
2018-05-18T06:00:04.497Z,22.39
2018-05-18T06:01:14.519Z,22.4
2018-05-18T06:02:23.949Z,22.42
2018-05-18T06:03:33.628Z,22.35
2018-05-18T06:04:43.365Z,22.37
2018-05-18T06:05:52.549Z,22.37
2018-05-18T06:07:01.996Z,22.39
2018-05-18T06:08:11.688Z,22.37
2018-05-18T06:09:20.869Z,22.4
2018-05-18T06:10:30.295Z,22.39
2018-05-18T06:11:39.825Z,22.39
2018-05-18T06:12:48.713Z,22.36
2018-05-18T06:13:57.612Z,22.36
2018-05-18T06:15:07.066Z,22.46
2018-05-18T06:16:16.799Z,22.45
2018-05-18T06:17:26.249Z,22.43
2018-05-18T06:18:35.656Z,22.46
2018-05-18T06:19:44.852Z,22.45
2018-05-18T06:20:54.531Z,22.45
2018-05-18T06:22:03.985Z,22.43
2018-05-18T06:23:12.875Z,22.39
2018-05-18T06:24:22.844Z,22.46
2018-05-18T06:25:32.296Z,22.47
2018-05-18T06:26:41.467Z,22.46
2018-05-18T06:27:50.412Z,22.58
2018-05-18T06:29:00.351Z,22.58
2018-05-18T06:30:09.573Z,22.54
2018-05-18T06:31:19.078Z,22.57
2018-05-18T06:32:28.857Z,22.62
2018-05-18T06:33:38.010Z,22.6
2018-05-18T06:34:47.300Z,22.51
2018-05-18T06:35:57.075Z,22.65
2018-05-18T06:37:06.299Z,22.58
2018-05-18T06:38:15.820Z,22.54
2018-05-18T06:39:25.010Z,22.51
2018-05-18T06:40:34.745Z,22.55
2018-05-18T06:41:44.213Z,22.49
2018-05-18T06:42:53.488Z,22.58
2018-05-18T06:44:02.995Z,22.58
2018-05-18T06:45:12.184Z,22.61
2018-05-18T06:46:21.878Z,22.7
2018-05-18T06:47:31.309Z,22.55
2018-05-18T06:48:40.007Z,22.67
2018-05-18T06:49:49.725Z,22.57
2018-05-18T06:50:59.220Z,22.67
2018-05-18T06:52:08.186Z,22.55
2018-05-18T06:53:17.386Z,22.68
2018-05-18T06:54:26.606Z,22.58
2018-05-18T06:55:36.333Z,22.58
2018-05-18T06:56:45.485Z,22.58
2018-05-18T06:57:55.219Z,22.58
2018-05-18T06:59:04.660Z,22.57
2018-05-18T07:00:13.562Z,22.6
2018-05-18T07:01:23.278Z,22.67
2018-05-18T07:02:33.002Z,22.57
2018-05-18T07:03:41.927Z,22.68
2018-05-18T07:04:51.361Z,22.65
2018-05-18T07:06:00.528Z,22.72
2018-05-18T07:07:09.697Z,22.76
2018-05-18T07:08:18.892Z,22.73
2018-05-18T07:09:28.351Z,22.72
2018-05-18T07:10:38.565Z,22.65
2018-05-18T07:11:48.270Z,22.7
2018-05-18T07:12:57.791Z,22.72
2018-05-18T07:14:07.015Z,22.73
2018-05-18T07:15:16.752Z,22.68
2018-05-18T07:16:26.530Z,22.73
2018-05-18T07:17:36.183Z,22.73
2018-05-18T07:18:45.919Z,22.7
2018-05-18T07:19:55.873Z,22.73
2018-05-18T07:21:05.050Z,22.79
2018-05-18T07:22:14.274Z,22.82
2018-05-18T07:23:23.427Z,22.75
2018-05-18T07:24:32.877Z,22.73
2018-05-18T07:25:42.046Z,22.68
2018-05-18T07:26:51.761Z,22.75
2018-05-18T07:28:00.937Z,22.79
2018-05-18T07:29:10.382Z,22.79
2018-05-18T07:30:19.628Z,22.76
2018-05-18T07:31:29.586Z,22.72
2018-05-18T07:32:39.020Z,22.72
2018-05-18T07:33:48.185Z,22.72
2018-05-18T07:34:57.868Z,22.77
2018-05-18T07:36:06.915Z,22.76
2018-05-18T07:37:16.674Z,22.75
2018-05-18T07:38:26.097Z,22.77
2018-05-18T07:39:35.525Z,22.76
2018-05-18T07:40:44.963Z,22.76
2018-05-18T07:41:54.153Z,22.79
2018-05-18T07:43:03.849Z,22.82
2018-05-18T07:44:13.787Z,22.82
2018-05-18T07:45:22.963Z,22.86
2018-05-18T07:46:32.434Z,22.82
2018-05-18T07:47:41.685Z,22.79
2018-05-18T07:48:50.607Z,22.82
2018-05-18T07:50:00.101Z,22.83
2018-05-18T07:51:09.432Z,22.8
2018-05-18T07:52:19.625Z,22.79
2018-05-18T07:53:28.864Z,22.82
2018-05-18T07:54:38.742Z,22.8
2018-05-18T07:55:48.164Z,22.82
2018-05-18T07:56:57.864Z,22.83
2018-05-18T07:58:07.084Z,22.79
2018-05-18T07:59:16.241Z,22.88
2018-05-18T08:00:25.710Z,22.9
2018-05-18T08:01:34.920Z,22.82
2018-05-18T08:02:44.383Z,22.82
2018-05-18T08:03:53.553Z,22.86
2018-05-18T08:05:03.229Z,22.88
2018-05-18T08:06:12.904Z,22.88
2018-05-18T08:07:22.359Z,22.9
2018-05-18T08:08:31.962Z,22.88
2018-05-18T08:09:41.648Z,22.83
2018-05-18T08:10:51.578Z,22.88
2018-05-18T08:12:00.506Z,22.88
2018-05-18T08:13:10.468Z,22.9
2018-05-18T08:14:20.257Z,22.91
2018-05-18T08:15:29.196Z,22.9
2018-05-18T08:16:38.669Z,22.92
2018-05-18T08:17:47.650Z,22.91
2018-05-18T08:18:57.447Z,22.85
2018-05-18T08:20:08.028Z,22.92
2018-05-18T08:21:17.233Z,22.92
2018-05-18T08:22:27.176Z,22.9
2018-05-18T08:23:36.795Z,22.86
2018-05-18T08:24:46.096Z,22.94
2018-05-18T08:25:55.610Z,22.92
2018-05-18T08:27:05.630Z,22.9
2018-05-18T08:28:15.520Z,22.91
2018-05-18T08:29:24.713Z,22.97
2018-05-18T08:30:34.259Z,22.91
2018-05-18T08:31:43.772Z,22.91
2018-05-18T08:32:53.267Z,22.91
2018-05-18T08:34:02.945Z,22.95
2018-05-18T08:35:12.391Z,22.97
2018-05-18T08:36:22.354Z,22.95
2018-05-18T08:37:31.800Z,22.9
2018-05-18T08:38:40.964Z,22.92
2018-05-18T08:39:50.155Z,22.94
2018-05-18T08:40:59.858Z,22.95
2018-05-18T08:42:09.319Z,22.92
2018-05-18T08:43:18.838Z,22.9
2018-05-18T08:44:28.090Z,22.91
2018-05-18T08:45:37.508Z,22.98
2018-05-18T08:46:46.718Z,22.94
2018-05-18T08:47:56.654Z,22.95
2018-05-18T08:49:05.831Z,22.92
2018-05-18T08:50:15.935Z,22.97
2018-05-18T08:51:25.108Z,22.91
2018-05-18T08:52:35.060Z,22.95
2018-05-18T08:53:44.257Z,22.91
2018-05-18T08:54:52.924Z,22.95
2018-05-18T08:56:02.117Z,22.92
2018-05-18T08:57:12.078Z,22.91
2018-05-18T08:58:22.077Z,22.92
2018-05-18T08:59:31.535Z,22.92
2018-05-18T09:00:41.045Z,22.9
2018-05-18T09:01:50.888Z,22.94
2018-05-18T09:03:00.074Z,22.95
2018-05-18T09:04:09.548Z,22.95
2018-05-18T09:05:19.000Z,23.02
2018-05-18T09:06:28.193Z,22.97
2018-05-18T09:07:37.875Z,22.97
2018-05-18T09:08:47.312Z,22.95
2018-05-18T09:09:56.786Z,22.98
2018-05-18T09:11:06.522Z,22.97
2018-05-18T09:12:16.307Z,22.98
2018-05-18T09:13:25.803Z,22.97
2018-05-18T09:14:35.213Z,22.95
2018-05-18T09:15:44.791Z,23
2018-05-18T09:16:54.544Z,22.92
2018-05-18T09:18:03.986Z,22.97
2018-05-18T09:19:13.719Z,22.97
2018-05-18T09:20:23.426Z,22.98
2018-05-18T09:21:32.630Z,23.01
2018-05-18T09:22:41.827Z,23.01
2018-05-18T09:23:50.763Z,23.01
2018-05-18T09:25:00.218Z,23.07
2018-05-18T09:26:09.184Z,23.05
2018-05-18T09:27:18.384Z,22.95
2018-05-18T09:28:27.828Z,23.01
2018-05-18T09:29:36.802Z,23
2018-05-18T09:30:46.508Z,23.01
2018-05-18T09:31:55.944Z,23
2018-05-18T09:33:05.501Z,23
2018-05-18T09:34:15.563Z,23
2018-05-18T09:35:25.450Z,23.05
2018-05-18T09:36:35.019Z,23.05
2018-05-18T09:37:44.515Z,22.95
2018-05-18T09:38:54.043Z,23.01
2018-05-18T09:40:03.593Z,23
2018-05-18T09:41:12.869Z,23
2018-05-18T09:42:22.431Z,23.07
2018-05-18T09:43:32.499Z,23.05
2018-05-18T09:44:41.759Z,23.04
2018-05-18T09:45:50.726Z,23.01
2018-05-18T09:47:00.487Z,23.07
2018-05-18T09:48:10.079Z,23.09
2018-05-18T09:49:19.666Z,23.07
2018-05-18T09:50:28.872Z,23.09
2018-05-18T09:51:38.135Z,23.04
2018-05-18T09:52:47.634Z,23.05
2018-05-18T09:53:57.180Z,23.01
2018-05-18T09:55:07.401Z,23.07
2018-05-18T09:56:17.476Z,23.01
2018-05-18T09:57:27.218Z,23.04
2018-05-18T09:58:36.277Z,23.01
2018-05-18T09:59:46.060Z,23.04
2018-05-18T10:00:55.559Z,23.1
2018-05-18T10:02:05.083Z,23
2018-05-18T10:03:14.304Z,23.02
2018-05-18T10:04:23.811Z,22.97
2018-05-18T10:05:32.760Z,23.09
2018-05-18T10:06:41.775Z,23.04
2018-05-18T10:07:51.254Z,23.07
2018-05-18T10:09:00.436Z,23.07
2018-05-18T10:10:10.207Z,23.05
2018-05-18T10:11:19.503Z,23.04
2018-05-18T10:12:29.324Z,23
2018-05-18T10:13:38.907Z,23.12
2018-05-18T10:14:48.385Z,23.05
2018-05-18T10:15:58.000Z,23.01
2018-05-18T10:17:07.669Z,23.05
2018-05-18T10:18:17.393Z,23.05
2018-05-18T10:19:26.359Z,23.07
2018-05-18T10:20:36.066Z,23.1
2018-05-18T10:21:45.569Z,23.04
2018-05-18T10:22:55.099Z,23.05
2018-05-18T10:24:04.887Z,23.13
2018-05-18T10:25:14.400Z,23.02
2018-05-18T10:26:23.998Z,23.1
2018-05-18T10:27:33.794Z,22.98
2018-05-18T10:28:43.466Z,23.07
2018-05-18T10:29:52.970Z,23.05
2018-05-18T10:31:02.269Z,23.05
2018-05-18T10:32:12.293Z,23.01
2018-05-18T10:33:21.206Z,23.04
2018-05-18T10:34:30.936Z,23.02
2018-05-18T10:35:40.361Z,23.01
2018-05-18T10:36:49.297Z,23.04
2018-05-18T10:37:58.454Z,23.05
2018-05-18T10:39:07.650Z,23.04
2018-05-18T10:40:16.822Z,23.05
2018-05-18T10:41:25.779Z,23.02
2018-05-18T10:42:35.454Z,23.1
2018-05-18T10:43:44.692Z,23.05
2018-05-18T10:44:54.583Z,23.05
2018-05-18T10:46:04.041Z,23.05
2018-05-18T10:47:13.252Z,23.09
2018-05-18T10:48:22.454Z,23.05
2018-05-18T10:49:32.402Z,23.09
2018-05-18T10:50:41.907Z,23.01
2018-05-18T10:51:51.612Z,23.09
2018-05-18T10:53:00.404Z,23.01
2018-05-18T10:54:09.953Z,23.07
2018-05-18T10:55:19.402Z,23.13
2018-05-18T10:56:28.849Z,23.09
2018-05-18T10:57:38.544Z,23.13
2018-05-18T10:58:48.248Z,23.07
2018-05-18T10:59:57.957Z,23.07
2018-05-18T11:01:07.390Z,23.09
2018-05-18T11:02:17.390Z,23.12
2018-05-18T11:03:27.093Z,23.05
2018-05-18T11:04:36.308Z,23.02
2018-05-18T11:05:45.479Z,23.13
2018-05-18T11:06:55.270Z,23.04
2018-05-18T11:08:05.553Z,23.02
2018-05-18T11:09:15.287Z,23.09
2018-05-18T11:10:25.019Z,23.07
2018-05-18T11:11:34.516Z,23.09
2018-05-18T11:12:43.737Z,23.12
2018-05-18T11:13:53.594Z,23.13
2018-05-18T11:15:03.324Z,23.12
2018-05-18T11:16:12.259Z,23.07
2018-05-18T11:17:22.012Z,23.13
2018-05-18T11:18:31.462Z,23.07
2018-05-18T11:19:41.175Z,23.13
2018-05-18T11:20:50.075Z,23.1
2018-05-18T11:21:58.997Z,23.13
2018-05-18T11:23:08.629Z,23.1
2018-05-18T11:24:18.116Z,23.07
2018-05-18T11:25:27.802Z,23.13
2018-05-18T11:26:37.263Z,23.02
2018-05-18T11:27:47.110Z,23.16
2018-05-18T11:28:56.869Z,23.12
2018-05-18T11:30:06.539Z,23.16
2018-05-18T11:31:16.231Z,23.05
2018-05-18T11:32:26.209Z,23.1
2018-05-18T11:33:35.889Z,23.12
2018-05-18T11:34:45.091Z,23.15
2018-05-18T11:35:54.600Z,23.15
2018-05-18T11:37:04.028Z,23.05
2018-05-18T11:38:13.455Z,23.16
2018-05-18T11:39:22.391Z,23.02
2018-05-18T11:40:31.842Z,23.02
2018-05-18T11:41:41.790Z,23.05
2018-05-18T11:42:51.230Z,23.16
2018-05-18T11:44:00.684Z,23.15
2018-05-18T11:45:09.860Z,23.13
2018-05-18T11:46:19.277Z,23.17
2018-05-18T11:47:28.960Z,23.13
2018-05-18T11:48:38.891Z,23.15
2018-05-18T11:49:48.059Z,23.12
2018-05-18T11:50:57.511Z,23.07
2018-05-18T11:52:06.922Z,23.1
2018-05-18T11:53:16.677Z,23.16
2018-05-18T11:54:26.394Z,23.05
2018-05-18T11:55:36.641Z,23.17
2018-05-18T11:56:46.749Z,23.15
2018-05-18T11:57:56.156Z,23.15
2018-05-18T11:59:05.589Z,23.09
2018-05-18T12:00:15.066Z,23.12
2018-05-18T12:01:24.541Z,23.19
2018-05-18T12:02:33.796Z,23.19
2018-05-18T12:03:43.213Z,23.07
2018-05-18T12:04:52.738Z,23.17
2018-05-18T12:06:02.171Z,23.13
2018-05-18T12:07:11.602Z,23.07
2018-05-18T12:08:20.892Z,23.16
2018-05-18T12:09:30.385Z,23.09
2018-05-18T12:10:39.536Z,23.16
2018-05-18T12:11:48.982Z,23.16
2018-05-18T12:12:58.426Z,23.17
2018-05-18T12:14:07.996Z,23.15
2018-05-18T12:15:17.612Z,23.09
2018-05-18T12:16:27.327Z,23.1
2018-05-18T12:17:36.984Z,23.16
2018-05-18T12:18:46.188Z,23.17
2018-05-18T12:19:55.441Z,23.09
2018-05-18T12:21:04.920Z,23.15
2018-05-18T12:22:14.378Z,23.16
2018-05-18T12:23:24.145Z,23.2
2018-05-18T12:24:33.084Z,23.17
2018-05-18T12:25:42.322Z,23.22
2018-05-18T12:26:51.767Z,23.17
2018-05-18T12:28:00.979Z,23.15
2018-05-18T12:29:10.143Z,23.17
2018-05-18T12:30:20.112Z,23.23
2018-05-18T12:31:29.396Z,23.13
2018-05-18T12:32:39.623Z,23.16
2018-05-18T12:33:48.845Z,23.13
2018-05-18T12:34:58.027Z,23.19
2018-05-18T12:36:07.298Z,23.16
2018-05-18T12:37:16.772Z,23.16
2018-05-18T12:38:26.665Z,23.17
2018-05-18T12:39:36.417Z,23.16
2018-05-18T12:40:45.401Z,23.22
2018-05-18T12:41:54.741Z,23.17
2018-05-18T12:43:04.531Z,23.19
2018-05-18T12:44:13.792Z,23.19
2018-05-18T12:45:22.975Z,23.13
2018-05-18T12:46:32.352Z,23.16
2018-05-18T12:47:41.808Z,23.28
2018-05-18T12:48:51.279Z,23.2
2018-05-18T12:50:00.507Z,23.23
2018-05-18T12:51:10.574Z,23.23
2018-05-18T12:52:20.340Z,23.22
2018-05-18T12:53:29.580Z,23.19
2018-05-18T12:54:39.061Z,23.22
2018-05-18T12:55:48.933Z,23.25
2018-05-18T12:56:58.226Z,23.2
2018-05-18T12:58:07.508Z,23.25
2018-05-18T12:59:17.258Z,23.25
2018-05-18T13:00:26.787Z,23.17
2018-05-18T13:01:36.234Z,23.17
2018-05-18T13:02:45.949Z,23.17
2018-05-18T13:03:55.487Z,23.23
2018-05-18T13:05:04.974Z,23.27
2018-05-18T13:06:14.522Z,23.22
2018-05-18T13:07:24.010Z,23.27
2018-05-18T13:08:33.678Z,23.12
2018-05-18T13:09:42.919Z,23.31
2018-05-18T13:10:52.729Z,23.25
2018-05-18T13:12:02.295Z,23.25
2018-05-18T13:13:11.264Z,23.27
2018-05-18T13:14:20.739Z,23.27
2018-05-18T13:15:30.705Z,23.31
2018-05-18T13:16:39.937Z,23.28
2018-05-18T13:17:49.717Z,23.25
2018-05-18T13:18:58.884Z,23.27
2018-05-18T13:20:08.335Z,23.25
2018-05-18T13:21:17.780Z,23.31
2018-05-18T13:22:27.223Z,23.25
2018-05-18T13:23:36.675Z,23.25
2018-05-18T13:24:46.716Z,23.25
2018-05-18T13:25:56.224Z,23.32
2018-05-18T13:27:05.472Z,23.25
2018-05-18T13:28:15.016Z,23.42
2018-05-18T13:29:24.426Z,23.33
2018-05-18T13:30:34.281Z,23.28
2018-05-18T13:31:44.210Z,23.4
2018-05-18T13:32:53.917Z,23.42
2018-05-18T13:34:03.429Z,23.4
2018-05-18T13:35:13.194Z,23.39
2018-05-18T13:36:22.906Z,23.38
2018-05-18T13:37:32.367Z,23.4
2018-05-18T13:38:42.543Z,23.42
2018-05-18T13:39:51.851Z,23.35
2018-05-18T13:41:01.020Z,23.38
2018-05-18T13:42:10.211Z,23.38
2018-05-18T13:43:19.447Z,23.38
2018-05-18T13:44:28.980Z,23.35
2018-05-18T13:45:38.847Z,23.35
2018-05-18T13:46:48.542Z,23.4
2018-05-18T13:47:57.749Z,23.38
2018-05-18T13:49:07.000Z,23.36
2018-05-18T13:50:16.677Z,23.35
2018-05-18T13:51:26.390Z,23.39
2018-05-18T13:52:35.908Z,23.38
2018-05-18T13:53:45.879Z,23.38
2018-05-18T13:54:55.367Z,23.39
2018-05-18T13:56:04.822Z,23.39
2018-05-18T13:57:14.640Z,23.39
2018-05-18T13:58:24.077Z,23.39
2018-05-18T13:59:34.015Z,23.46
2018-05-18T14:00:43.201Z,23.42
2018-05-18T14:01:52.662Z,23.48
2018-05-18T14:03:02.748Z,23.48
2018-05-18T14:04:12.234Z,23.4
2018-05-18T14:05:21.427Z,23.43
2018-05-18T14:06:31.121Z,23.46
2018-05-18T14:07:40.842Z,23.46
2018-05-18T14:08:49.826Z,23.4
2018-05-18T14:09:59.017Z,23.43
2018-05-18T14:11:08.276Z,23.39
2018-05-18T14:12:17.262Z,23.43
2018-05-18T14:13:26.714Z,23.46
2018-05-18T14:14:35.423Z,23.47
2018-05-18T14:15:44.606Z,23.47
2018-05-18T14:16:53.844Z,23.54
2018-05-18T14:18:03.013Z,23.54
2018-05-18T14:19:12.469Z,23.5
2018-05-18T14:20:21.683Z,23.5
2018-05-18T14:21:31.426Z,23.54
2018-05-18T14:22:41.442Z,23.53
2018-05-18T14:23:51.159Z,23.53
2018-05-18T14:25:00.183Z,23.47
2018-05-18T14:26:08.887Z,23.54
2018-05-18T14:27:18.161Z,23.51
2018-05-18T14:28:27.913Z,23.5
2018-05-18T14:29:37.091Z,23.53
2018-05-18T14:30:46.797Z,23.53
2018-05-18T14:31:56.208Z,23.5
2018-05-18T14:33:05.683Z,23.53
2018-05-18T14:34:15.133Z,23.51
2018-05-18T14:35:24.356Z,23.55
2018-05-18T14:36:33.528Z,23.54
2018-05-18T14:37:43.382Z,23.51
2018-05-18T14:38:52.537Z,23.54
2018-05-18T14:40:01.714Z,23.51
2018-05-18T14:41:10.624Z,23.5
2018-05-18T14:42:19.805Z,23.47
2018-05-18T14:43:28.966Z,23.47
2018-05-18T14:44:38.141Z,23.53
2018-05-18T14:45:47.316Z,23.51
2018-05-18T14:46:57.010Z,23.53
2018-05-18T14:48:06.307Z,23.51
2018-05-18T14:49:16.314Z,23.53
2018-05-18T14:50:25.799Z,23.48
2018-05-18T14:51:35.812Z,23.55
2018-05-18T14:52:45.745Z,23.47
2018-05-18T14:53:55.256Z,23.48
2018-05-18T14:55:04.975Z,23.54
2018-05-18T14:56:14.709Z,23.53
2018-05-18T14:57:24.690Z,23.53
2018-05-18T14:58:34.011Z,23.47
2018-05-18T14:59:43.237Z,23.53